Time;durP1;ratioP1;P1;durP2;ratioP2;P2;SDS_P1;SDS_P2;PMS_P1;PMS_P2;Temp;Humidity;BMP_temperature;BMP_pressure;BME280_temperature;BME280_humidity;BME280_pressure;Samples;Min_cycle;Max_cycle;Signal;HPM_P1;HPM_P2
2021/01/25 00:02:20;;;;;;;3.95;1.80;;;2.70;99.90;;;;;;4961370;28;20054;-72
2021/01/25 00:04:47;;;;;;;3.78;1.45;;;2.70;99.90;;;;;;4970787;28;20113;-68
2021/01/25 00:07:13;;;;;;;3.88;1.40;;;2.70;99.90;;;;;;4963112;28;20137;-68
2021/01/25 00:09:40;;;;;;;13.77;2.08;;;2.60;99.90;;;;;;4967454;28;20047;-71
2021/01/25 00:12:06;;;;;;;6.57;1.52;;;2.60;99.90;;;;;;4962942;28;20043;-71
2021/01/25 00:14:33;;;;;;;3.92;1.25;;;2.60;99.90;;;;;;4970477;28;20060;-66
2021/01/25 00:17:00;;;;;;;3.42;1.42;;;2.60;99.90;;;;;;4967652;28;20048;-72
2021/01/25 00:19:27;;;;;;;5.97;1.42;;;2.60;99.90;;;;;;4958358;28;20040;-65
2021/01/25 00:21:53;;;;;;;6.00;1.10;;;2.60;99.90;;;;;;4964288;28;20125;-68
2021/01/25 00:24:20;;;;;;;4.00;1.45;;;2.70;99.90;;;;;;4959558;28;20132;-67
2021/01/25 00:26:46;;;;;;;3.50;2.30;;;2.70;99.90;;;;;;4968398;28;20062;-67
2021/01/25 00:29:13;;;;;;;9.80;1.42;;;2.70;99.90;;;;;;4962881;28;20133;-65
2021/01/25 00:31:39;;;;;;;3.95;1.70;;;2.80;99.90;;;;;;4966748;28;20050;-66
2021/01/25 00:34:06;;;;;;;6.30;1.13;;;2.70;99.90;;;;;;4962016;28;20945;-69
2021/01/25 00:36:32;;;;;;;6.78;1.42;;;2.70;99.90;;;;;;4963262;28;20066;-66
2021/01/25 00:38:59;;;;;;;6.95;2.50;;;2.70;99.90;;;;;;4961254;28;20156;-65
2021/01/25 00:41:25;;;;;;;5.68;1.17;;;2.60;99.90;;;;;;4964856;28;20054;-65
2021/01/25 00:43:52;;;;;;;8.40;1.38;;;2.60;99.90;;;;;;4964718;28;20522;-67
2021/01/25 00:46:18;;;;;;;3.92;0.95;;;2.60;99.90;;;;;;4958327;28;20051;-68
2021/01/25 00:48:45;;;;;;;4.82;1.25;;;2.60;99.90;;;;;;4963568;28;20035;-67
2021/01/25 00:51:11;;;;;;;7.70;1.33;;;2.60;99.90;;;;;;4963308;28;20126;-66
2021/01/25 00:53:38;;;;;;;4.93;0.90;;;2.50;99.90;;;;;;4972330;28;20164;-69
2021/01/25 00:56:05;;;;;;;4.85;2.22;;;2.50;99.90;;;;;;4965550;28;20031;-66
2021/01/25 00:58:32;;;;;;;6.53;1.08;;;2.50;99.90;;;;;;4962978;28;20043;-67
2021/01/25 01:00:59;;;;;;;6.50;1.33;;;2.50;99.90;;;;;;4964729;28;20047;-67
2021/01/25 01:03:26;;;;;;;8.23;1.40;;;2.50;99.90;;;;;;4965341;28;20078;-73
2021/01/25 01:05:52;;;;;;;3.05;1.08;;;2.40;99.90;;;;;;4960389;28;20058;-66
2021/01/25 01:08:18;;;;;;;6.25;0.68;;;2.40;99.90;;;;;;4962380;28;20705;-66
2021/01/25 01:10:46;;;;;;;3.72;1.40;;;2.40;99.90;;;;;;4960086;28;20042;-66
2021/01/25 01:13:12;;;;;;;6.55;1.27;;;2.40;99.90;;;;;;4964433;28;20050;-65
2021/01/25 01:15:38;;;;;;;6.72;1.48;;;2.40;99.90;;;;;;4959768;28;20070;-67
2021/01/25 01:18:05;;;;;;;9.05;1.30;;;2.50;99.90;;;;;;4958944;28;20039;-65
2021/01/25 01:20:32;;;;;;;8.18;1.73;;;2.50;99.90;;;;;;4958928;28;20110;-66
2021/01/25 01:22:59;;;;;;;3.97;2.08;;;2.60;99.90;;;;;;4960487;28;20039;-65
2021/01/25 01:25:25;;;;;;;6.70;1.63;;;2.70;99.90;;;;;;4961136;28;20051;-68
2021/01/25 01:27:52;;;;;;;4.22;0.80;;;2.70;99.90;;;;;;4963306;28;20057;-70
2021/01/25 01:30:18;;;;;;;7.70;1.27;;;2.70;99.90;;;;;;4965997;28;20077;-65
2021/01/25 01:32:45;;;;;;;8.13;1.70;;;2.70;99.90;;;;;;4961146;28;20050;-66
2021/01/25 01:35:11;;;;;;;2.88;0.90;;;2.70;99.90;;;;;;4970069;28;20047;-65
2021/01/25 01:37:38;;;;;;;7.43;1.13;;;2.70;99.90;;;;;;4961984;28;20066;-65
2021/01/25 01:40:07;;;;;;;6.43;0.98;;;2.70;99.90;;;;;;4964284;28;20066;-69
2021/01/25 01:42:34;;;;;;;5.18;1.15;;;2.60;99.90;;;;;;4963979;28;20433;-68
2021/01/25 01:45:03;;;;;;;4.57;1.80;;;2.70;99.90;;;;;;4962744;28;20065;-66
2021/01/25 01:47:30;;;;;;;4.28;0.70;;;2.70;99.90;;;;;;4964973;28;20054;-68
2021/01/25 01:49:58;;;;;;;5.10;0.90;;;2.70;99.90;;;;;;4964917;28;20491;-64
2021/01/25 01:52:24;;;;;;;2.45;1.10;;;2.80;99.90;;;;;;4962552;28;20654;-65
2021/01/25 01:54:55;;;;;;;4.97;0.70;;;2.70;99.90;;;;;;4962502;28;20062;-70
2021/01/25 01:57:22;;;;;;;2.95;1.98;;;2.80;99.90;;;;;;4962607;28;20401;-65
2021/01/25 01:59:49;;;;;;;3.42;0.82;;;2.80;99.90;;;;;;4963546;28;20047;-67
2021/01/25 02:02:15;;;;;;;7.75;1.60;;;2.80;99.90;;;;;;4956806;28;20042;-64
2021/01/25 02:04:44;;;;;;;2.60;1.35;;;2.80;99.90;;;;;;4963584;28;20043;-73
2021/01/25 02:07:11;;;;;;;3.05;0.85;;;2.80;99.90;;;;;;4962588;28;20113;-67
2021/01/25 02:09:40;;;;;;;2.92;1.33;;;2.80;99.90;;;;;;4963005;28;20101;-67
2021/01/25 02:12:09;;;;;;;1.15;0.40;;;2.70;99.90;;;;;;4956152;28;20059;-65
2021/01/25 02:14:37;;;;;;;4.15;0.82;;;2.70;99.90;;;;;;4961208;28;20491;-64
2021/01/25 02:17:04;;;;;;;3.05;0.63;;;2.70;99.90;;;;;;4960149;28;20085;-67
2021/01/25 02:20:00;;;;;;;4.95;1.08;;;2.70;99.90;;;;;;4971233;28;20145;-65
2021/01/25 02:22:48;;;;;;;4.88;1.15;;;2.70;99.90;;;;;;4955310;28;20766;-69
2021/01/25 02:25:15;;;;;;;2.58;0.90;;;2.60;99.90;;;;;;4958178;28;20104;-71
2021/01/25 02:27:45;;;;;;;7.40;2.13;;;2.60;99.90;;;;;;4961146;28;20750;-70
2021/01/25 02:30:17;;;;;;;3.03;1.35;;;2.60;99.90;;;;;;4962817;28;20063;-66
2021/01/25 02:32:46;;;;;;;6.22;1.85;;;2.60;99.90;;;;;;4961096;28;20502;-70
2021/01/25 02:35:16;;;;;;;7.20;1.40;;;2.50;99.90;;;;;;4968460;28;20047;-65
2021/01/25 02:37:45;;;;;;;10.25;2.28;;;2.50;99.90;;;;;;4960372;28;20051;-70
2021/01/25 02:40:15;;;;;;;3.95;1.45;;;2.60;99.90;;;;;;4954990;28;20046;-66
2021/01/25 02:42:42;;;;;;;6.40;2.28;;;2.60;99.90;;;;;;4960590;28;20074;-67
2021/01/25 02:45:10;;;;;;;6.40;1.27;;;2.60;99.90;;;;;;4962193;28;20188;-66
2021/01/25 02:47:38;;;;;;;5.13;1.63;;;2.50;99.90;;;;;;4958418;28;20447;-70
2021/01/25 02:50:05;;;;;;;4.90;1.33;;;2.50;99.90;;;;;;4961662;28;20131;-66
2021/01/25 02:52:32;;;;;;;7.30;1.85;;;2.50;99.90;;;;;;4960223;28;20141;-67
2021/01/25 02:55:01;;;;;;;3.67;1.40;;;2.50;99.90;;;;;;4961627;28;20069;-65
2021/01/25 02:57:30;;;;;;;3.10;1.10;;;2.50;99.90;;;;;;4968095;28;20043;-69
2021/01/25 02:59:57;;;;;;;4.60;1.08;;;2.50;99.90;;;;;;4962688;28;20498;-67
2021/01/25 03:02:23;;;;;;;5.30;0.95;;;2.50;99.90;;;;;;4964218;28;20117;-65
2021/01/25 03:04:51;;;;;;;4.82;0.95;;;2.50;99.90;;;;;;4961762;28;20239;-64
2021/01/25 03:07:18;;;;;;;5.30;1.25;;;2.40;99.90;;;;;;4962250;28;20812;-70
2021/01/25 03:09:44;;;;;;;6.03;0.82;;;2.40;99.90;;;;;;4960479;28;20066;-66
2021/01/25 03:12:11;;;;;;;3.05;0.90;;;2.40;99.90;;;;;;4960654;28;20508;-64
2021/01/25 03:14:45;;;;;;;5.20;0.40;;;2.30;99.90;;;;;;4962083;28;20120;-66
2021/01/25 03:17:12;;;;;;;2.55;1.15;;;2.30;99.90;;;;;;4961556;28;20450;-66
2021/01/25 03:19:39;;;;;;;7.57;1.90;;;2.30;99.90;;;;;;4962212;28;20042;-70
2021/01/25 03:22:05;;;;;;;4.78;1.17;;;2.30;99.90;;;;;;4959237;28;20053;-66
2021/01/25 03:24:31;;;;;;;5.25;0.95;;;2.30;99.90;;;;;;4960162;28;20046;-66
2021/01/25 03:26:58;;;;;;;1.65;0.98;;;2.30;99.90;;;;;;4972808;28;20050;-68
2021/01/25 03:29:24;;;;;;;3.25;1.15;;;2.30;99.90;;;;;;4966821;28;20114;-70
2021/01/25 03:31:51;;;;;;;5.43;1.05;;;2.20;99.90;;;;;;4966672;28;20055;-65
2021/01/25 03:34:17;;;;;;;6.07;1.00;;;2.20;99.90;;;;;;4968920;28;20077;-70
2021/01/25 03:36:44;;;;;;;6.05;1.10;;;2.10;99.90;;;;;;4978184;28;20131;-67
2021/01/25 03:39:10;;;;;;;5.47;1.20;;;2.10;99.90;;;;;;4969766;28;20752;-67
2021/01/25 03:41:37;;;;;;;6.32;0.85;;;2.10;99.90;;;;;;4966408;28;20042;-65
2021/01/25 03:44:03;;;;;;;1.90;0.55;;;2.20;99.90;;;;;;4970223;28;20557;-68
2021/01/25 03:46:30;;;;;;;4.93;0.80;;;2.10;99.90;;;;;;4963283;28;20046;-65
2021/01/25 03:48:56;;;;;;;2.90;0.70;;;2.00;99.90;;;;;;4968184;28;20141;-66
2021/01/25 03:51:23;;;;;;;6.00;0.68;;;1.90;99.90;;;;;;4959737;28;20053;-67
2021/01/25 03:53:49;;;;;;;3.58;1.13;;;2.00;99.90;;;;;;4962800;28;20047;-66
2021/01/25 03:56:16;;;;;;;2.00;0.43;;;2.00;99.90;;;;;;4963720;28;22427;-65
2021/01/25 03:58:43;;;;;;;1.15;0.32;;;2.00;99.90;;;;;;4961315;28;20102;-68
2021/01/25 04:01:11;;;;;;;2.67;1.52;;;2.00;99.90;;;;;;4970211;28;20470;-71
2021/01/25 04:03:37;;;;;;;2.33;0.50;;;2.00;99.90;;;;;;4965260;28;20105;-65
2021/01/25 04:06:04;;;;;;;1.13;0.30;;;2.00;99.90;;;;;;4969699;28;20520;-66
2021/01/25 04:08:30;;;;;;;2.53;0.47;;;1.90;99.90;;;;;;4963632;28;20561;-66
2021/01/25 04:10:56;;;;;;;4.93;1.58;;;1.90;99.90;;;;;;4967679;28;20058;-66
2021/01/25 04:13:23;;;;;;;2.67;0.93;;;1.70;99.90;;;;;;4965152;28;20054;-66
2021/01/25 04:15:49;;;;;;;5.47;0.70;;;1.70;99.90;;;;;;4967688;28;20042;-67
2021/01/25 04:18:16;;;;;;;1.05;0.60;;;1.70;99.90;;;;;;4961869;28;20043;-68
2021/01/25 04:20:43;;;;;;;9.55;0.90;;;1.70;99.90;;;;;;4965802;28;20080;-72
2021/01/25 04:23:09;;;;;;;3.22;0.88;;;1.60;99.90;;;;;;4962122;28;20042;-68
2021/01/25 04:25:36;;;;;;;3.97;1.08;;;1.60;99.90;;;;;;4960579;28;20212;-66
2021/01/25 04:28:02;;;;;;;3.08;0.98;;;1.60;99.90;;;;;;4967136;28;20055;-66
2021/01/25 04:30:29;;;;;;;5.43;1.42;;;1.50;99.90;;;;;;4962093;28;20120;-72
2021/01/25 04:32:56;;;;;;;5.38;1.50;;;1.50;99.90;;;;;;4954569;28;20042;-69
2021/01/25 04:35:23;;;;;;;4.13;1.25;;;1.50;99.90;;;;;;4967496;28;20046;-68
2021/01/25 04:37:49;;;;;;;4.05;1.00;;;1.50;99.90;;;;;;4963813;28;20062;-72
2021/01/25 04:40:16;;;;;;;2.70;1.25;;;1.50;99.90;;;;;;4963439;28;20109;-66
2021/01/25 04:42:42;;;;;;;2.17;0.80;;;1.50;99.90;;;;;;4970853;28;20053;-67
2021/01/25 04:45:11;;;;;;;4.75;0.98;;;1.40;99.90;;;;;;4962723;28;20487;-72
2021/01/25 04:47:41;;;;;;;3.70;1.10;;;1.40;99.90;;;;;;4965188;28;20042;-69
2021/01/25 04:50:08;;;;;;;2.13;0.77;;;1.40;99.90;;;;;;4963720;28;20050;-68
2021/01/25 04:52:37;;;;;;;3.45;1.45;;;1.40;99.90;;;;;;4965284;28;20050;-69
2021/01/25 04:55:04;;;;;;;3.20;0.95;;;1.40;99.90;;;;;;4963312;28;20046;-67
2021/01/25 04:57:31;;;;;;;5.93;1.60;;;1.40;99.90;;;;;;4968803;28;20153;-67
2021/01/25 05:00:01;;;;;;;3.00;0.93;;;1.40;99.90;;;;;;4961822;28;20109;-66
2021/01/25 05:02:28;;;;;;;6.75;1.48;;;1.40;99.90;;;;;;4957441;28;20105;-69
2021/01/25 05:04:55;;;;;;;2.85;1.10;;;1.50;99.90;;;;;;4964044;28;20035;-72
2021/01/25 05:07:21;;;;;;;3.92;1.25;;;1.40;99.90;;;;;;4963692;28;20054;-70
2021/01/25 05:09:48;;;;;;;5.45;1.13;;;1.40;99.90;;;;;;4966017;28;20554;-73
2021/01/25 05:12:14;;;;;;;4.72;1.48;;;1.50;99.90;;;;;;4962428;28;20141;-67
2021/01/25 05:14:43;;;;;;;3.78;1.25;;;1.40;99.90;;;;;;4958758;28;20660;-67
2021/01/25 05:17:15;;;;;;;3.65;0.90;;;1.40;99.90;;;;;;4961496;28;20051;-68
2021/01/25 05:19:45;;;;;;;2.65;0.85;;;1.40;99.90;;;;;;4965743;28;20046;-70
2021/01/25 05:22:19;;;;;;;6.05;1.73;;;1.40;99.90;;;;;;4960061;28;20348;-66
2021/01/25 05:24:50;;;;;;;3.72;1.52;;;1.30;99.90;;;;;;4959249;28;20047;-67
2021/01/25 05:27:29;;;;;;;2.67;0.80;;;1.40;99.90;;;;;;4962333;28;20073;-70
2021/01/25 05:30:10;;;;;;;6.20;1.33;;;1.30;99.90;;;;;;4963933;28;20125;-68
2021/01/25 05:32:49;;;;;;;9.25;1.25;;;1.40;99.90;;;;;;4960833;28;20495;-69
2021/01/25 05:35:17;;;;;;;2.03;1.13;;;1.30;99.90;;;;;;4963575;28;20043;-66
2021/01/25 05:37:56;;;;;;;3.30;1.30;;;1.20;99.90;;;;;;4965168;28;20141;-71
2021/01/25 05:40:27;;;;;;;3.35;1.17;;;1.30;99.90;;;;;;4961958;28;20093;-68
2021/01/25 05:42:55;;;;;;;2.90;1.38;;;1.30;99.90;;;;;;4962212;28;20046;-70
2021/01/25 05:45:24;;;;;;;2.35;0.75;;;1.20;99.90;;;;;;4962779;28;20141;-66
2021/01/25 05:48:00;;;;;;;9.98;2.15;;;1.10;99.90;;;;;;4964633;28;20710;-70
2021/01/25 05:50:35;;;;;;;4.32;1.55;;;1.10;99.90;;;;;;4960203;28;20146;-68
2021/01/25 05:53:07;;;;;;;4.82;1.15;;;1.10;99.90;;;;;;4965460;28;20554;-69
2021/01/25 05:55:34;;;;;;;5.20;1.05;;;1.10;99.90;;;;;;4962825;28;20046;-71
2021/01/25 05:58:01;;;;;;;2.08;0.95;;;1.10;99.90;;;;;;4959046;28;20160;-69
2021/01/25 06:00:29;;;;;;;8.85;1.75;;;1.00;99.90;;;;;;4961249;28;20225;-67
2021/01/25 06:02:56;;;;;;;2.13;1.13;;;1.00;99.90;;;;;;4963312;28;20071;-67
2021/01/25 06:05:32;;;;;;;4.72;1.55;;;1.00;99.90;;;;;;4964160;28;20575;-67
2021/01/25 06:08:13;;;;;;;5.35;2.92;;;1.00;99.90;;;;;;5064247;27;20387;-67
2021/01/25 06:11:02;;;;;;;3.05;0.90;;;1.00;99.90;;;;;;5051252;28;20056;-67
2021/01/25 06:13:37;;;;;;;3.30;0.63;;;1.00;99.90;;;;;;5054596;28;20202;-73
2021/01/25 06:16:08;;;;;;;1.10;0.65;;;1.00;99.90;;;;;;5053250;28;20069;-67
2021/01/25 06:18:36;;;;;;;3.42;1.40;;;1.00;99.90;;;;;;5054512;28;20128;-70
2021/01/25 06:21:07;;;;;;;5.13;2.05;;;1.10;99.90;;;;;;5051695;28;20278;-70
2021/01/25 06:23:36;;;;;;;3.65;0.95;;;1.10;99.90;;;;;;5055858;28;20060;-68
2021/01/25 06:26:04;;;;;;;2.80;1.05;;;1.10;99.90;;;;;;5052223;28;20129;-72
2021/01/25 06:28:32;;;;;;;2.45;0.85;;;1.00;99.90;;;;;;5056571;28;20065;-71
2021/01/25 06:31:00;;;;;;;3.17;1.00;;;1.00;99.90;;;;;;5053700;28;20134;-68
2021/01/25 06:33:27;;;;;;;3.95;1.42;;;1.00;99.90;;;;;;5053638;28;20045;-70
2021/01/25 06:35:53;;;;;;;2.70;1.38;;;1.00;99.90;;;;;;5054636;28;20140;-71
2021/01/25 06:38:21;;;;;;;6.88;1.00;;;1.00;99.90;;;;;;5054091;28;20128;-68
2021/01/25 06:40:48;;;;;;;2.45;0.88;;;1.00;99.90;;;;;;5054001;28;20048;-70
2021/01/25 06:43:18;;;;;;;1.17;1.08;;;1.00;99.90;;;;;;5053975;28;20052;-71
2021/01/25 06:45:46;;;;;;;1.58;0.93;;;1.00;99.90;;;;;;5056057;28;20053;-75
2021/01/25 06:48:15;;;;;;;3.15;1.60;;;1.00;99.90;;;;;;5052579;28;20095;-78
2021/01/25 06:50:48;;;;;;;3.47;1.27;;;1.00;99.90;;;;;;5057649;28;20049;-70
2021/01/25 06:53:15;;;;;;;2.22;0.88;;;1.00;99.90;;;;;;5052598;28;20156;-72
2021/01/25 06:55:43;;;;;;;6.85;1.80;;;1.00;99.90;;;;;;5054115;28;20485;-72
2021/01/25 06:58:11;;;;;;;4.97;1.10;;;1.00;99.90;;;;;;5050591;28;20127;-71
2021/01/25 07:00:39;;;;;;;5.72;0.93;;;1.00;99.90;;;;;;5055673;28;20516;-72
2021/01/25 07:03:08;;;;;;;6.15;1.80;;;1.00;99.90;;;;;;5052046;28;20045;-71
2021/01/25 07:05:38;;;;;;;4.45;0.82;;;1.00;99.90;;;;;;5057006;28;20425;-73
2021/01/25 07:08:21;;;;;;;3.22;1.00;;;1.10;99.90;;;;;;5053412;28;20162;-76
2021/01/25 07:10:49;;;;;;;2.30;0.80;;;1.10;99.90;;;;;;5053168;28;20135;-70
2021/01/25 07:13:16;;;;;;;4.50;1.30;;;1.00;99.90;;;;;;5052685;28;20071;-71
2021/01/25 07:15:44;;;;;;;7.20;1.88;;;1.00;99.90;;;;;;5056278;28;20056;-70
2021/01/25 07:18:11;;;;;;;1.48;0.80;;;1.10;99.90;;;;;;5048116;28;20061;-71
2021/01/25 07:20:38;;;;;;;2.17;0.60;;;1.10;99.90;;;;;;5037955;28;20045;-75
2021/01/25 07:23:08;;;;;;;7.93;1.30;;;1.10;99.90;;;;;;5039044;28;20110;-70
2021/01/25 07:25:34;;;;;;;3.90;0.55;;;1.10;99.90;;;;;;5041519;28;20657;-72
2021/01/25 07:28:03;;;;;;;5.05;1.17;;;1.10;99.90;;;;;;5040655;28;20106;-74
2021/01/25 07:30:32;;;;;;;3.50;0.90;;;1.10;99.90;;;;;;5037546;28;20166;-69
2021/01/25 07:33:03;;;;;;;6.80;0.80;;;1.10;99.90;;;;;;5039636;28;20510;-71
2021/01/25 07:35:31;;;;;;;4.68;0.93;;;1.10;99.90;;;;;;5037746;28;20049;-73
2021/01/25 07:37:58;;;;;;;4.38;1.35;;;1.10;99.90;;;;;;5039862;28;20073;-74
2021/01/25 07:40:24;;;;;;;6.13;1.17;;;1.10;99.90;;;;;;5034677;28;20103;-72
2021/01/25 07:42:52;;;;;;;1.92;0.80;;;1.10;99.90;;;;;;5039762;28;20098;-71
2021/01/25 07:45:22;;;;;;;0.90;0.65;;;1.10;99.90;;;;;;5036633;28;20052;-71
2021/01/25 07:47:48;;;;;;;6.22;2.75;;;1.10;99.90;;;;;;5038950;28;20380;-73
2021/01/25 07:50:16;;;;;;;4.53;0.80;;;1.10;99.90;;;;;;5039123;28;20426;-68
2021/01/25 07:52:42;;;;;;;3.53;1.10;;;1.10;99.90;;;;;;5036911;28;20133;-70
2021/01/25 07:55:14;;;;;;;3.10;1.15;;;1.10;99.90;;;;;;5043668;28;20653;-69
2021/01/25 07:57:41;;;;;;;1.65;1.08;;;1.10;99.90;;;;;;5036467;28;20056;-69
2021/01/25 08:00:19;;;;;;;1.23;0.82;;;1.10;99.90;;;;;;5042932;28;20088;-70
2021/01/25 08:02:54;;;;;;;3.53;1.10;;;1.10;99.90;;;;;;5036355;28;20076;-69
2021/01/25 08:05:25;;;;;;;2.65;1.08;;;1.10;99.90;;;;;;5041798;28;20049;-70
2021/01/25 08:07:53;;;;;;;3.22;1.02;;;1.10;99.90;;;;;;5037173;28;20087;-70
2021/01/25 08:10:20;;;;;;;1.13;0.95;;;1.20;99.90;;;;;;5037511;28;20111;-68
2021/01/25 08:12:47;;;;;;;10.38;1.13;;;1.20;99.90;;;;;;5036891;28;20099;-69
2021/01/25 08:15:27;;;;;;;3.15;0.70;;;1.20;99.90;;;;;;5039897;28;20126;-68
2021/01/25 08:17:58;;;;;;;1.48;0.57;;;1.20;99.90;;;;;;5033537;28;20140;-68
2021/01/25 08:20:30;;;;;;;4.60;0.75;;;1.20;99.90;;;;;;5038655;28;20758;-68
2021/01/25 08:23:13;;;;;;;4.22;1.10;;;1.30;99.90;;;;;;5038337;28;20075;-73
2021/01/25 08:25:40;;;;;;;7.13;1.00;;;1.20;99.90;;;;;;5038212;28;20052;-71
2021/01/25 08:28:18;;;;;;;3.05;0.52;;;1.20;99.90;;;;;;5050239;28;20077;-69
2021/01/25 08:30:47;;;;;;;1.85;0.50;;;1.20;99.90;;;;;;5036209;28;20045;-72
2021/01/25 08:33:27;;;;;;;3.08;1.52;;;1.20;99.90;;;;;;5034125;28;20155;-77
2021/01/25 08:35:57;;;;;;;3.75;0.70;;;1.30;99.90;;;;;;5041053;28;20041;-73
2021/01/25 08:38:26;;;;;;;2.15;0.93;;;1.30;99.90;;;;;;5039041;28;20040;-71
2021/01/25 08:40:54;;;;;;;4.75;1.02;;;1.30;99.90;;;;;;5035960;28;20126;-71
2021/01/25 08:43:28;;;;;;;3.13;0.50;;;1.30;99.90;;;;;;5040912;28;20052;-69
2021/01/25 08:46:10;;;;;;;4.53;0.95;;;1.20;99.90;;;;;;5034278;28;20087;-73
2021/01/25 08:48:37;;;;;;;2.38;0.85;;;1.20;99.90;;;;;;5037865;28;20059;-68
2021/01/25 08:51:31;;;;;;;2.15;0.98;;;1.30;99.90;;;;;;5037656;28;20661;-76
2021/01/25 08:54:07;;;;;;;2.95;0.90;;;1.30;99.90;;;;;;5037113;28;20049;-72
2021/01/25 08:56:37;;;;;;;3.90;0.50;;;1.30;99.90;;;;;;5033823;28;20519;-68
2021/01/25 08:59:13;;;;;;;4.32;0.75;;;1.20;99.90;;;;;;5043393;28;20048;-72
2021/01/25 09:01:43;;;;;;;3.22;0.60;;;1.20;99.90;;;;;;5040468;28;20427;-68
2021/01/25 09:04:10;;;;;;;2.47;0.93;;;1.20;99.90;;;;;;5038211;28;20033;-70
2021/01/25 09:06:54;;;;;;;0.60;0.45;;;1.20;99.90;;;;;;5036399;28;20049;-71
2021/01/25 09:09:21;;;;;;;2.97;1.10;;;1.20;99.90;;;;;;5043696;28;20102;-72
2021/01/25 09:11:47;;;;;;;2.30;1.08;;;1.30;99.90;;;;;;5035579;28;20049;-75
2021/01/25 09:14:20;;;;;;;2.50;1.00;;;1.30;99.90;;;;;;5038105;28;20130;-74
2021/01/25 09:16:47;;;;;;;2.83;0.70;;;1.20;99.90;;;;;;5036349;28;20047;-72
2021/01/25 09:19:15;;;;;;;1.85;0.65;;;1.30;99.90;;;;;;5040291;28;20495;-69
2021/01/25 09:21:42;;;;;;;3.30;0.88;;;1.30;99.90;;;;;;5032372;28;20072;-70
2021/01/25 09:24:08;;;;;;;2.95;0.85;;;1.40;99.90;;;;;;5041046;28;20052;-73
2021/01/25 09:26:35;;;;;;;1.27;0.68;;;1.30;99.90;;;;;;5039330;28;20041;-68
2021/01/25 09:29:02;;;;;;;1.80;0.77;;;1.40;99.90;;;;;;5036046;28;20110;-69
2021/01/25 09:31:29;;;;;;;3.78;1.23;;;1.30;99.90;;;;;;5044009;28;20045;-71
2021/01/25 09:33:56;;;;;;;5.65;1.50;;;1.30;99.90;;;;;;5036165;28;20062;-74
2021/01/25 09:36:22;;;;;;;2.15;0.93;;;1.30;99.90;;;;;;5034193;28;20483;-75
2021/01/25 09:39:05;;;;;;;3.22;1.10;;;1.40;99.90;;;;;;5035563;28;20042;-68
2021/01/25 09:41:31;;;;;;;2.92;1.00;;;1.40;99.90;;;;;;5042161;28;20058;-74
2021/01/25 09:43:58;;;;;;;1.30;1.20;;;1.30;99.90;;;;;;5036935;28;20052;-69
2021/01/25 09:46:24;;;;;;;3.15;1.15;;;1.40;99.90;;;;;;5034346;28;20133;-71
2021/01/25 09:48:51;;;;;;;5.07;1.45;;;1.40;99.90;;;;;;5037306;28;20493;-73
2021/01/25 09:51:17;;;;;;;6.40;1.65;;;1.40;99.90;;;;;;5040107;28;20099;-70
2021/01/25 09:53:44;;;;;;;4.43;1.42;;;1.40;99.90;;;;;;5036959;28;20103;-71
2021/01/25 09:56:10;;;;;;;3.58;1.88;;;1.40;99.90;;;;;;5033449;28;20060;-70
2021/01/25 09:58:37;;;;;;;1.45;0.90;;;1.40;99.90;;;;;;5037867;28;20461;-68
2021/01/25 10:01:04;;;;;;;2.50;1.67;;;1.40;99.90;;;;;;5036319;28;20057;-68
2021/01/25 10:03:31;;;;;;;6.28;1.13;;;1.40;99.90;;;;;;5038156;28;20132;-69
2021/01/25 10:05:59;;;;;;;3.88;1.13;;;1.40;99.90;;;;;;5037416;28;20057;-69
2021/01/25 10:08:26;;;;;;;2.90;1.10;;;1.40;99.90;;;;;;5030673;28;20156;-71
2021/01/25 10:10:52;;;;;;;2.33;0.68;;;1.50;99.90;;;;;;5036220;28;20049;-70
2021/01/25 10:13:18;;;;;;;4.13;1.40;;;1.40;99.90;;;;;;5039429;28;20433;-69
2021/01/25 10:15:45;;;;;;;3.78;1.35;;;1.50;99.90;;;;;;5038213;28;20052;-70
2021/01/25 10:18:11;;;;;;;4.63;1.23;;;1.50;99.90;;;;;;5033428;28;20057;-70
2021/01/25 10:20:38;;;;;;;2.10;1.30;;;1.50;99.90;;;;;;5035129;28;20049;-71
2021/01/25 10:23:05;;;;;;;6.28;1.60;;;1.50;99.90;;;;;;5037762;28;20107;-69
2021/01/25 10:25:31;;;;;;;2.80;2.45;;;1.50;99.90;;;;;;5034546;28;20063;-68
2021/01/25 10:27:58;;;;;;;4.03;1.20;;;1.40;99.90;;;;;;5039030;28;20490;-69
2021/01/25 10:30:24;;;;;;;3.13;1.02;;;1.50;99.90;;;;;;5037420;28;20132;-69
2021/01/25 10:32:51;;;;;;;1.30;1.02;;;1.40;99.90;;;;;;5032431;28;20037;-70
2021/01/25 10:35:19;;;;;;;2.95;1.20;;;1.40;99.90;;;;;;5039299;28;20751;-68
2021/01/25 10:37:46;;;;;;;2.35;1.40;;;1.40;99.90;;;;;;5036214;28;20045;-69
2021/01/25 10:40:14;;;;;;;7.20;1.95;;;1.40;99.90;;;;;;5034473;28;20045;-68
2021/01/25 10:42:44;;;;;;;4.72;1.52;;;1.40;99.90;;;;;;5037371;28;20051;-68
2021/01/25 10:45:10;;;;;;;3.42;1.73;;;1.40;99.90;;;;;;5043246;28;20186;-69
2021/01/25 10:47:37;;;;;;;3.20;1.02;;;1.40;99.90;;;;;;5035265;28;20049;-67
2021/01/25 10:50:07;;;;;;;3.92;1.67;;;1.40;99.90;;;;;;5038716;28;20045;-68
2021/01/25 10:52:41;;;;;;;2.35;1.15;;;1.40;99.90;;;;;;5032868;28;20126;-70
2021/01/25 10:55:08;;;;;;;3.33;2.38;;;1.50;99.90;;;;;;5041537;28;20052;-71
2021/01/25 10:57:35;;;;;;;2.92;1.10;;;1.40;99.90;;;;;;5039590;28;20048;-68
2021/01/25 11:00:07;;;;;;;3.47;1.95;;;1.50;99.90;;;;;;5044113;28;20072;-72
2021/01/25 11:02:33;;;;;;;1.83;1.40;;;1.50;99.90;;;;;;5038655;28;20057;-68
2021/01/25 11:05:03;;;;;;;8.57;2.15;;;1.50;99.90;;;;;;5042259;28;20574;-67
2021/01/25 11:07:30;;;;;;;6.97;1.58;;;1.50;99.90;;;;;;5039945;28;20045;-68
2021/01/25 11:09:57;;;;;;;2.72;0.95;;;1.50;99.90;;;;;;5037797;28;20566;-68
2021/01/25 11:12:23;;;;;;;1.25;1.08;;;1.60;99.90;;;;;;5044160;28;20045;-68
2021/01/25 11:14:49;;;;;;;3.40;0.70;;;1.50;99.90;;;;;;5038729;28;20080;-71
2021/01/25 11:17:16;;;;;;;1.20;0.73;;;1.50;99.90;;;;;;5040680;28;20063;-67
2021/01/25 11:19:43;;;;;;;5.60;1.08;;;1.50;99.90;;;;;;5039420;28;21358;-71
2021/01/25 11:22:09;;;;;;;7.78;1.10;;;1.50;99.90;;;;;;5037818;28;20053;-70
2021/01/25 11:24:36;;;;;;;2.15;0.63;;;1.50;99.90;;;;;;5037661;28;20108;-72
2021/01/25 11:27:04;;;;;;;2.75;1.20;;;1.50;99.90;;;;;;5037703;28;20048;-68
2021/01/25 11:29:31;;;;;;;5.28;0.98;;;1.50;99.90;;;;;;5039266;28;20099;-68
2021/01/25 11:32:05;;;;;;;1.55;1.02;;;1.50;99.90;;;;;;5043852;28;20148;-70
2021/01/25 11:34:32;;;;;;;3.60;1.08;;;1.50;99.90;;;;;;5036518;28;20102;-73
2021/01/25 11:36:58;;;;;;;0.75;0.70;;;1.50;99.90;;;;;;5040022;28;20060;-70
2021/01/25 11:39:27;;;;;;;2.30;1.10;;;1.50;99.90;;;;;;5039117;28;20179;-68
2021/01/25 11:41:54;;;;;;;5.10;1.10;;;1.50;99.90;;;;;;5040417;28;20060;-69
2021/01/25 11:44:21;;;;;;;1.75;0.80;;;1.50;99.90;;;;;;5041402;28;20052;-72
2021/01/25 11:46:47;;;;;;;4.43;1.30;;;1.50;99.90;;;;;;5038160;28;20170;-71
2021/01/25 11:49:14;;;;;;;1.50;0.90;;;1.50;99.90;;;;;;5044565;28;20056;-68
2021/01/25 11:51:41;;;;;;;3.60;1.60;;;1.50;99.90;;;;;;5039352;28;20110;-67
2021/01/25 11:54:08;;;;;;;5.10;1.85;;;1.50;99.90;;;;;;5041021;28;20440;-68
2021/01/25 11:56:34;;;;;;;4.50;1.50;;;1.50;99.90;;;;;;5036576;28;20069;-68
2021/01/25 11:59:01;;;;;;;4.22;1.08;;;1.60;99.90;;;;;;5043722;28;20673;-68
2021/01/25 12:01:28;;;;;;;1.45;0.75;;;1.60;99.90;;;;;;5038719;28;20160;-69
2021/01/25 12:03:55;;;;;;;5.18;1.10;;;1.60;99.90;;;;;;5040712;28;20063;-68
2021/01/25 12:06:21;;;;;;;4.65;1.35;;;1.60;99.90;;;;;;5040273;28;20115;-69
2021/01/25 12:08:47;;;;;;;3.00;1.60;;;1.50;99.90;;;;;;5038115;28;20134;-70
2021/01/25 12:11:14;;;;;;;5.97;1.70;;;1.50;99.90;;;;;;5040496;28;20068;-71
2021/01/25 12:13:40;;;;;;;2.45;1.30;;;1.50;99.90;;;;;;5039323;28;20082;-69
2021/01/25 12:16:10;;;;;;;2.30;1.33;;;1.50;99.90;;;;;;5039598;28;20470;-68
2021/01/25 12:18:37;;;;;;;0.63;0.50;;;1.50;99.90;;;;;;5033589;28;20056;-69
2021/01/25 12:21:03;;;;;;;8.27;1.20;;;1.50;99.90;;;;;;5033201;28;20465;-68
2021/01/25 12:23:32;;;;;;;3.13;1.02;;;1.50;99.90;;;;;;5033830;28;20068;-68
2021/01/25 12:25:59;;;;;;;3.80;3.47;;;1.60;99.90;;;;;;5040027;28;20049;-67
2021/01/25 12:28:25;;;;;;;7.63;1.38;;;1.50;99.90;;;;;;5032770;28;20223;-69
2021/01/25 12:30:51;;;;;;;3.95;1.52;;;1.60;99.90;;;;;;5041340;28;20130;-73
2021/01/25 12:33:18;;;;;;;2.70;1.20;;;1.60;99.90;;;;;;5038372;28;20473;-70
2021/01/25 12:35:45;;;;;;;3.63;1.30;;;1.60;99.90;;;;;;5036505;28;20032;-67
2021/01/25 12:38:11;;;;;;;2.90;0.93;;;1.60;99.90;;;;;;5037651;28;20049;-71
2021/01/25 12:40:38;;;;;;;2.65;2.00;;;1.60;99.90;;;;;;5037906;28;20053;-69
2021/01/25 12:43:04;;;;;;;3.53;1.65;;;1.60;99.90;;;;;;5040887;28;20080;-67
2021/01/25 12:45:31;;;;;;;7.30;1.17;;;1.60;99.90;;;;;;5036435;28;20445;-70
2021/01/25 12:47:58;;;;;;;1.13;1.00;;;1.60;99.90;;;;;;5045479;28;20060;-69
2021/01/25 12:50:24;;;;;;;1.80;1.10;;;1.60;99.90;;;;;;5035917;28;20083;-68
2021/01/25 12:52:51;;;;;;;4.95;1.70;;;1.50;99.90;;;;;;5041254;28;20800;-72
2021/01/25 12:55:17;;;;;;;2.83;1.38;;;1.50;99.90;;;;;;5038607;28;20045;-70
2021/01/25 12:57:46;;;;;;;1.42;1.00;;;1.50;99.90;;;;;;5040619;28;20568;-68
2021/01/25 13:00:16;;;;;;;2.78;1.13;;;1.50;99.90;;;;;;5039970;28;20060;-72
2021/01/25 13:02:42;;;;;;;3.50;1.38;;;1.40;99.90;;;;;;5039981;28;20091;-68
2021/01/25 13:05:11;;;;;;;2.08;1.77;;;1.40;99.90;;;;;;5040586;28;20053;-69